Time,TemperatureF,DewpointF,PressureIn,WindDirection,WindDirectionDegrees,WindSpeedMPH,WindSpeedGustMPH,Humidity,HourlyPrecipIn,Conditions,Clouds,dailyrainin,SoftwareType,DateUTC
2013-09-27 00:02:00,78.6,76.5,29.85,WNW,292,0.0,0.0,93,0.00,,,0.00,meteohub,2013-09-27 04:02:00,
2013-09-27 00:04:00,78.6,76.5,29.85,WNW,292,0.0,0.0,93,0.00,,,0.00,meteohub,2013-09-27 04:04:00,
2013-09-27 00:05:00,78.6,76.5,29.85,WNW,292,0.0,0.0,93,0.00,,,0.00,meteohub,2013-09-27 04:05:00,
2013-09-27 00:07:00,78.4,76.3,29.85,WNW,292,0.0,0.0,93,0.00,,,0.00,meteohub,2013-09-27 04:07:00,
2013-09-27 00:12:00,78.4,76.3,29.85,WNW,292,0.0,0.0,93,0.00,,,0.00,meteohub,2013-09-27 04:12:00,
2013-09-27 00:17:00,78.4,76.3,29.85,WNW,292,0.0,1.0,93,0.00,,,0.00,meteohub,2013-09-27 04:17:00,
2013-09-27 00:22:00,78.4,76.3,29.85,WNW,292,0.0,1.0,93,0.00,,,0.00,meteohub,2013-09-27 04:22:00,
2013-09-27 00:27:00,78.4,76.3,29.85,WNW,292,0.0,1.0,93,0.00,,,0.00,meteohub,2013-09-27 04:27:00,
2013-09-27 00:32:00,78.4,76.3,29.85,WNW,292,0.0,0.0,93,0.00,,,0.00,meteohub,2013-09-27 04:32:00,
2013-09-27 00:37:00,78.3,76.1,29.85,WNW,285,0.0,1.0,93,0.00,,,0.00,meteohub,2013-09-27 04:37:00,
2013-09-27 00:42:00,78.3,76.1,29.85,WNW,285,0.0,1.0,93,0.00,,,0.00,meteohub,2013-09-27 04:42:00,
2013-09-27 00:47:00,78.3,76.1,29.85,WNW,285,0.0,1.0,93,0.00,,,0.00,meteohub,2013-09-27 04:47:00,
2013-09-27 00:52:00,78.1,75.9,29.85,WNW,285,0.0,1.0,93,0.00,,,0.00,meteohub,2013-09-27 04:52:00,
2013-09-27 00:57:00,77.9,76.1,29.85,WNW,285,0.0,0.0,94,0.00,,,0.00,meteohub,2013-09-27 04:57:00,
2013-09-27 01:02:00,77.9,76.1,29.85,WNW,285,0.0,0.0,94,0.00,,,0.00,meteohub,2013-09-27 05:02:00,
2013-09-27 01:07:00,77.9,76.1,29.85,WNW,285,0.0,0.0,94,0.00,,,0.00,meteohub,2013-09-27 05:07:00,
2013-09-27 01:12:00,77.7,75.9,29.85,WNW,285,0.0,0.0,94,0.00,,,0.00,meteohub,2013-09-27 05:12:00,
2013-09-27 01:17:00,77.5,75.7,29.85,WNW,285,0.0,1.0,94,0.00,,,0.00,meteohub,2013-09-27 05:17:00,
2013-09-27 01:22:00,77.5,75.7,29.84,WNW,285,0.0,1.0,94,0.00,,,0.00,meteohub,2013-09-27 05:22:00,
2013-09-27 01:27:00,77.4,75.6,29.84,WNW,285,0.0,1.0,94,0.00,,,0.00,meteohub,2013-09-27 05:27:00,
2013-09-27 01:32:00,77.2,75.4,29.84,WNW,285,0.0,0.0,94,0.00,,,0.00,meteohub,2013-09-27 05:32:00,
2013-09-27 01:37:00,77.2,75.4,29.84,WNW,285,0.0,1.0,94,0.00,,,0.00,meteohub,2013-09-27 05:37:00,
2013-09-27 01:42:00,77.2,75.6,29.84,WNW,285,0.0,1.0,95,0.00,,,0.00,meteohub,2013-09-27 05:42:00,
2013-09-27 01:47:00,77.2,75.6,29.84,WNW,285,0.0,1.0,95,0.00,,,0.00,meteohub,2013-09-27 05:47:00,
2013-09-27 01:52:00,77.2,75.4,29.84,WNW,285,0.0,1.0,94,0.00,,,0.00,meteohub,2013-09-27 05:52:00,
2013-09-27 01:57:00,76.8,75.0,29.84,WNW,285,0.0,1.0,94,0.00,,,0.00,meteohub,2013-09-27 05:57:00,
2013-09-27 02:02:00,76.8,75.2,29.84,WNW,285,0.0,0.0,95,0.00,,,0.00,meteohub,2013-09-27 06:02:00,
2013-09-27 02:03:00,76.8,75.2,29.84,WNW,285,0.0,0.0,95,0.00,,,0.00,meteohub,2013-09-27 06:03:00,
2013-09-27 02:08:00,76.6,75.0,29.83,WNW,285,0.0,0.0,95,0.00,,,0.00,meteohub,2013-09-27 06:08:00,
2013-09-27 02:13:00,76.6,75.0,29.83,WNW,285,0.0,0.0,95,0.00,,,0.00,meteohub,2013-09-27 06:13:00,
2013-09-27 02:18:00,76.6,75.0,29.83,WNW,285,0.0,0.0,95,0.00,,,0.00,meteohub,2013-09-27 06:18:00,
2013-09-27 02:23:00,76.5,74.8,29.83,WNW,285,0.0,0.0,95,0.00,,,0.00,meteohub,2013-09-27 06:23:00,
2013-09-27 02:28:00,76.5,74.8,29.83,WNW,285,0.0,0.0,95,0.00,,,0.00,meteohub,2013-09-27 06:28:00,
2013-09-27 02:33:00,76.5,74.8,29.83,WNW,285,0.0,0.0,95,0.00,,,0.00,meteohub,2013-09-27 06:33:00,
2013-09-27 02:38:00,76.3,74.7,29.83,WNW,285,0.0,0.0,95,0.00,,,0.00,meteohub,2013-09-27 06:38:00,
2013-09-27 02:43:00,76.3,74.7,29.83,WNW,285,0.0,0.0,95,0.00,,,0.00,meteohub,2013-09-27 06:43:00,
2013-09-27 02:48:00,76.1,74.5,29.83,WNW,285,0.0,0.0,95,0.00,,,0.00,meteohub,2013-09-27 06:48:00,
2013-09-27 02:53:00,75.9,74.3,29.82,WNW,285,0.0,0.0,95,0.00,,,0.00,meteohub,2013-09-27 06:53:00,
2013-09-27 02:58:00,75.9,74.7,29.83,WNW,285,0.0,0.0,96,0.00,,,0.00,meteohub,2013-09-27 06:58:00,
2013-09-27 03:03:00,75.9,74.7,29.83,WNW,285,0.0,0.0,96,0.00,,,0.00,meteohub,2013-09-27 07:03:00,
2013-09-27 03:08:00,75.9,74.7,29.82,WNW,290,0.0,1.0,96,0.00,,,0.00,meteohub,2013-09-27 07:08:00,
2013-09-27 03:13:00,75.9,74.7,29.82,WNW,290,0.0,1.0,96,0.00,,,0.00,meteohub,2013-09-27 07:13:00,
2013-09-27 03:19:00,75.7,74.5,29.82,WNW,290,0.0,1.0,96,0.00,,,0.00,meteohub,2013-09-27 07:19:00,
2013-09-27 03:24:00,75.7,74.5,29.82,WNW,299,0.0,0.0,96,0.00,,,0.00,meteohub,2013-09-27 07:24:00,
2013-09-27 03:29:00,75.7,74.5,29.82,WNW,299,0.0,2.0,96,0.00,,,0.00,meteohub,2013-09-27 07:29:00,
2013-09-27 03:34:00,75.6,74.3,29.82,WNW,299,0.0,2.0,96,0.00,,,0.00,meteohub,2013-09-27 07:34:00,
2013-09-27 03:39:00,75.6,74.3,29.82,WNW,299,0.0,2.0,96,0.00,,,0.00,meteohub,2013-09-27 07:39:00,
2013-09-27 03:44:00,75.6,74.3,29.82,WNW,299,0.0,1.0,96,0.00,,,0.00,meteohub,2013-09-27 07:44:00,
2013-09-27 03:49:00,75.6,74.3,29.82,WNW,298,0.0,1.0,96,0.00,,,0.00,meteohub,2013-09-27 07:49:00,
2013-09-27 03:54:00,75.6,74.3,29.82,WNW,298,0.0,1.0,96,0.00,,,0.00,meteohub,2013-09-27 07:54:00,
2013-09-27 03:59:00,75.6,74.3,29.82,WNW,298,0.0,2.0,96,0.00,,,0.00,meteohub,2013-09-27 07:59:00,
2013-09-27 04:04:00,75.4,74.1,29.82,NW,305,0.0,2.0,96,0.00,,,0.00,meteohub,2013-09-27 08:04:00,
2013-09-27 04:09:00,75.4,74.1,29.82,NW,305,0.0,2.0,96,0.00,,,0.00,meteohub,2013-09-27 08:09:00,
2013-09-27 04:14:00,75.2,73.9,29.82,NW,305,0.0,2.0,96,0.00,,,0.00,meteohub,2013-09-27 08:14:00,
2013-09-27 04:19:00,75.0,74.1,29.82,NW,305,1.0,0.0,97,0.00,,,0.00,meteohub,2013-09-27 08:19:00,
2013-09-27 04:24:00,75.0,74.1,29.82,NW,305,0.0,1.0,97,0.00,,,0.00,meteohub,2013-09-27 08:24:00,
2013-09-27 04:29:00,75.0,74.1,29.82,NW,305,0.0,2.0,97,0.00,,,0.00,meteohub,2013-09-27 08:29:00,
2013-09-27 04:34:00,74.8,73.6,29.82,NW,305,0.0,2.0,96,0.00,,,0.00,meteohub,2013-09-27 08:34:00,
2013-09-27 04:39:00,74.8,73.9,29.82,NW,305,0.0,2.0,97,0.00,,,0.00,meteohub,2013-09-27 08:39:00,
2013-09-27 04:44:00,74.8,73.9,29.83,NW,305,0.0,0.0,97,0.00,,,0.00,meteohub,2013-09-27 08:44:00,
2013-09-27 04:49:00,74.7,73.8,29.82,NW,305,0.0,0.0,97,0.00,,,0.00,meteohub,2013-09-27 08:49:00,
2013-09-27 04:54:00,74.5,73.6,29.82,NW,305,0.0,0.0,97,0.00,,,0.00,meteohub,2013-09-27 08:54:00,
2013-09-27 05:00:00,74.5,73.6,29.82,NW,305,0.0,0.0,97,0.00,,,0.00,meteohub,2013-09-27 09:00:00,
2013-09-27 05:05:00,74.3,73.4,29.83,NW,305,0.0,0.0,97,0.00,,,0.00,meteohub,2013-09-27 09:05:00,
2013-09-27 05:10:00,74.5,73.6,29.83,NW,305,0.0,1.0,97,0.00,,,0.00,meteohub,2013-09-27 09:10:00,
2013-09-27 05:15:00,74.1,73.2,29.83,NW,305,0.0,1.0,97,0.00,,,0.00,meteohub,2013-09-27 09:15:00,
2013-09-27 05:20:00,74.3,73.4,29.83,NW,305,0.0,1.0,97,0.00,,,0.00,meteohub,2013-09-27 09:20:00,
2013-09-27 05:25:00,74.3,73.4,29.83,NW,305,0.0,0.0,97,0.00,,,0.00,meteohub,2013-09-27 09:25:00,
2013-09-27 05:30:00,74.1,73.2,29.83,NW,305,0.0,0.0,97,0.00,,,0.00,meteohub,2013-09-27 09:30:00,
2013-09-27 05:35:00,74.1,73.2,29.83,NW,305,0.0,0.0,97,0.00,,,0.00,meteohub,2013-09-27 09:35:00,
2013-09-27 05:40:00,74.1,73.2,29.83,NW,305,1.0,0.0,97,0.00,,,0.00,meteohub,2013-09-27 09:40:00,
2013-09-27 05:45:00,74.1,73.2,29.83,NW,305,0.0,1.0,97,0.00,,,0.00,meteohub,2013-09-27 09:45:00,
2013-09-27 05:50:00,74.1,73.2,29.83,NW,304,0.0,1.0,97,0.00,,,0.00,meteohub,2013-09-27 09:50:00,
2013-09-27 05:55:00,74.1,73.2,29.83,NW,304,0.0,1.0,97,0.00,,,0.00,meteohub,2013-09-27 09:55:00,
2013-09-27 06:00:00,73.9,73.0,29.83,NW,304,0.0,1.0,97,0.00,,,0.00,meteohub,2013-09-27 10:00:00,
2013-09-27 06:05:00,73.9,73.0,29.83,NW,304,0.0,0.0,97,0.00,,,0.00,meteohub,2013-09-27 10:05:00,
2013-09-27 06:10:00,73.9,73.0,29.83,NW,304,0.0,0.0,97,0.00,,,0.00,meteohub,2013-09-27 10:10:00,
2013-09-27 06:15:00,73.8,72.9,29.83,NW,304,0.0,1.0,97,0.00,,,0.00,meteohub,2013-09-27 10:15:00,
2013-09-27 06:20:00,73.8,73.2,29.84,NW,304,0.0,1.0,98,0.00,,,0.00,meteohub,2013-09-27 10:20:00,
2013-09-27 06:25:00,73.8,72.9,29.84,NW,304,0.0,1.0,97,0.00,,,0.00,meteohub,2013-09-27 10:25:00,
2013-09-27 06:30:00,73.6,72.7,29.84,WNW,299,0.0,0.0,97,0.00,,,0.00,meteohub,2013-09-27 10:30:00,
2013-09-27 06:35:00,73.6,73.0,29.84,WNW,299,0.0,2.0,98,0.00,,,0.00,meteohub,2013-09-27 10:35:00,
2013-09-27 06:40:00,73.6,73.0,29.85,WNW,300,0.0,2.0,98,0.00,,,0.00,meteohub,2013-09-27 10:40:00,
2013-09-27 06:45:00,73.6,73.0,29.85,WNW,300,0.0,2.0,98,0.00,,,0.00,meteohub,2013-09-27 10:45:00,
2013-09-27 06:50:00,73.6,73.0,29.85,WNW,297,0.0,1.0,98,0.00,,,0.00,meteohub,2013-09-27 10:50:00,
2013-09-27 06:55:00,73.6,73.0,29.85,WNW,297,0.0,1.0,98,0.00,,,0.00,meteohub,2013-09-27 10:55:00,
2013-09-27 07:00:00,73.4,72.5,29.85,WNW,302,0.0,3.0,97,0.00,,,0.00,meteohub,2013-09-27 11:00:00,
2013-09-27 07:05:00,73.4,72.9,29.85,WNW,302,0.0,3.0,98,0.00,,,0.00,meteohub,2013-09-27 11:05:00,
2013-09-27 07:10:00,73.2,72.7,29.85,NW,309,0.0,4.0,98,0.01,,,0.01,meteohub,2013-09-27 11:10:00,
2013-09-27 07:15:00,73.2,72.7,29.86,NW,309,0.0,4.0,98,0.01,,,0.01,meteohub,2013-09-27 11:15:00,
2013-09-27 07:20:00,73.2,72.7,29.86,NW,306,0.0,4.0,98,0.01,,,0.01,meteohub,2013-09-27 11:20:00,
2013-09-27 07:25:00,73.2,72.7,29.86,West,280,0.0,3.0,98,0.01,,,0.01,meteohub,2013-09-27 11:25:00,
2013-09-27 07:30:00,73.2,72.7,29.86,WNW,283,0.0,3.0,98,0.01,,,0.01,meteohub,2013-09-27 11:30:00,
2013-09-27 07:35:00,73.2,72.7,29.86,WNW,297,0.0,3.0,98,0.01,,,0.01,meteohub,2013-09-27 11:35:00,
2013-09-27 07:41:00,73.2,72.7,29.86,WNW,286,0.0,2.0,98,0.01,,,0.01,meteohub,2013-09-27 11:41:00,
2013-09-27 07:46:00,73.2,72.7,29.86,WNW,296,0.0,2.0,98,0.01,,,0.01,meteohub,2013-09-27 11:46:00,
2013-09-27 07:51:00,73.2,72.7,29.87,WNW,296,0.0,2.0,98,0.01,,,0.01,meteohub,2013-09-27 11:51:00,
2013-09-27 07:56:00,73.2,72.7,29.87,NW,309,1.0,3.0,98,0.01,,,0.01,meteohub,2013-09-27 11:56:00,
2013-09-27 08:01:00,73.4,72.9,29.87,NNW,329,2.0,3.0,98,0.01,,,0.01,meteohub,2013-09-27 12:01:00,
2013-09-27 08:06:00,73.2,72.7,29.87,NW,315,1.0,4.0,98,0.01,,,0.01,meteohub,2013-09-27 12:06:00,
2013-09-27 08:11:00,73.4,72.9,29.87,NW,320,0.0,4.0,98,0.00,,,0.01,meteohub,2013-09-27 12:11:00,
2013-09-27 08:16:00,73.6,73.0,29.87,NW,320,0.0,4.0,98,0.00,,,0.01,meteohub,2013-09-27 12:16:00,
2013-09-27 08:21:00,73.6,73.0,29.87,NNW,327,0.0,4.0,98,0.00,,,0.01,meteohub,2013-09-27 12:21:00,
2013-09-27 08:26:00,73.8,73.2,29.87,North,355,0.0,4.0,98,0.00,,,0.01,meteohub,2013-09-27 12:26:00,
2013-09-27 08:31:00,73.9,73.4,29.87,NNW,338,0.0,4.0,98,0.00,,,0.01,meteohub,2013-09-27 12:31:00,
2013-09-27 08:36:00,74.3,73.8,29.87,North,350,0.0,3.0,98,0.00,,,0.01,meteohub,2013-09-27 12:36:00,
2013-09-27 08:41:00,74.7,74.1,29.88,North,11,0.0,3.0,98,0.00,,,0.01,meteohub,2013-09-27 12:41:00,
2013-09-27 08:46:00,74.8,73.9,29.88,WNW,284,0.0,3.0,97,0.00,,,0.01,meteohub,2013-09-27 12:46:00,
2013-09-27 08:51:00,75.4,74.5,29.87,NNW,336,0.0,3.0,97,0.00,,,0.01,meteohub,2013-09-27 12:51:00,
2013-09-27 08:56:00,75.7,74.5,29.88,NNW,346,0.0,3.0,96,0.00,,,0.01,meteohub,2013-09-27 12:56:00,
2013-09-27 09:01:00,76.5,74.8,29.87,NNW,346,0.0,3.0,95,0.00,,,0.01,meteohub,2013-09-27 13:01:00,
2013-09-27 09:06:00,76.8,74.7,29.88,NW,304,1.0,2.0,93,0.00,,,0.01,meteohub,2013-09-27 13:06:00,
2013-09-27 09:11:00,77.4,74.8,29.88,NW,309,0.0,3.0,92,0.00,,,0.01,meteohub,2013-09-27 13:11:00,
2013-09-27 09:16:00,78.1,74.8,29.88,NW,315,0.0,4.0,90,0.00,,,0.01,meteohub,2013-09-27 13:16:00,
2013-09-27 09:21:00,78.6,75.0,29.88,NNE,21,0.0,4.0,89,0.00,,,0.01,meteohub,2013-09-27 13:21:00,
2013-09-27 09:26:00,79.2,75.4,29.88,NNW,330,0.0,4.0,88,0.00,,,0.01,meteohub,2013-09-27 13:26:00,
2013-09-27 09:31:00,79.5,75.0,29.88,NW,313,0.0,3.0,86,0.00,,,0.01,meteohub,2013-09-27 13:31:00,
2013-09-27 09:36:00,80.1,75.9,29.88,NNE,25,0.0,3.0,87,0.00,,,0.01,meteohub,2013-09-27 13:36:00,
2013-09-27 09:41:00,80.6,75.7,29.88,NE,42,0.0,3.0,85,0.00,,,0.01,meteohub,2013-09-27 13:41:00,
2013-09-27 09:46:00,81.1,75.6,29.88,North,0,0.0,3.0,83,0.00,,,0.01,meteohub,2013-09-27 13:46:00,
2013-09-27 09:51:00,81.3,75.4,29.88,North,350,0.0,4.0,82,0.00,,,0.01,meteohub,2013-09-27 13:51:00,
2013-09-27 09:56:00,81.9,75.4,29.89,NE,43,0.0,4.0,81,0.00,,,0.01,meteohub,2013-09-27 13:56:00,
2013-09-27 10:01:00,82.2,75.0,29.88,NNW,329,1.0,4.0,79,0.00,,,0.01,meteohub,2013-09-27 14:01:00,
2013-09-27 10:06:00,82.6,75.4,29.88,North,355,2.0,3.0,79,0.00,,,0.01,meteohub,2013-09-27 14:06:00,
2013-09-27 10:11:00,82.8,74.8,29.88,West,275,6.0,6.0,77,0.00,,,0.01,meteohub,2013-09-27 14:11:00,
2013-09-27 10:16:00,82.9,75.4,29.89,NNW,334,2.0,6.0,78,0.00,,,0.01,meteohub,2013-09-27 14:16:00,
2013-09-27 10:21:00,83.3,74.5,29.89,NNW,340,0.0,6.0,75,0.00,,,0.01,meteohub,2013-09-27 14:21:00,
2013-09-27 10:26:00,83.7,74.8,29.89,NNW,331,0.0,6.0,75,0.00,,,0.01,meteohub,2013-09-27 14:26:00,
2013-09-27 10:31:00,83.7,74.5,29.89,NNW,338,1.0,6.0,74,0.00,,,0.01,meteohub,2013-09-27 14:31:00,
2013-09-27 10:36:00,83.7,74.1,29.89,NW,314,0.0,6.0,73,0.00,,,0.01,meteohub,2013-09-27 14:36:00,
2013-09-27 10:41:00,83.8,75.0,29.89,West,261,3.0,6.0,75,0.00,,,0.01,meteohub,2013-09-27 14:41:00,
2013-09-27 10:46:00,84.0,74.8,29.89,North,0,0.0,7.0,74,0.00,,,0.01,meteohub,2013-09-27 14:46:00,
2013-09-27 10:51:00,84.4,74.3,29.89,NW,325,1.0,7.0,72,0.00,,,0.01,meteohub,2013-09-27 14:51:00,
2013-09-27 10:56:00,84.7,74.3,29.89,NNW,329,1.0,7.0,71,0.00,,,0.01,meteohub,2013-09-27 14:56:00,
2013-09-27 11:01:00,85.3,74.8,29.89,WNW,302,0.0,6.0,71,0.00,,,0.01,meteohub,2013-09-27 15:01:00,
2013-09-27 11:06:00,85.8,74.5,29.89,North,355,0.0,5.0,69,0.00,,,0.01,meteohub,2013-09-27 15:06:00,
2013-09-27 11:11:00,86.4,74.1,29.89,NE,39,0.0,4.0,67,0.00,,,0.01,meteohub,2013-09-27 15:11:00,
2013-09-27 11:16:00,86.2,73.0,29.89,West,278,2.0,6.0,65,0.00,,,0.01,meteohub,2013-09-27 15:16:00,
2013-09-27 11:21:00,86.4,73.6,29.89,NW,325,1.0,6.0,66,0.00,,,0.01,meteohub,2013-09-27 15:21:00,
2013-09-27 11:26:00,86.5,72.9,29.89,NW,319,3.0,6.0,64,0.00,,,0.01,meteohub,2013-09-27 15:26:00,
2013-09-27 11:31:00,86.7,72.7,29.89,North,0,0.0,6.0,63,0.00,,,0.01,meteohub,2013-09-27 15:31:00,
2013-09-27 11:36:00,87.4,72.9,29.89,NNE,32,3.0,5.0,62,0.00,,,0.01,meteohub,2013-09-27 15:36:00,
2013-09-27 11:41:00,87.4,72.3,29.89,West,279,2.0,6.0,61,0.00,,,0.01,meteohub,2013-09-27 15:41:00,
2013-09-27 11:46:00,87.3,72.7,29.89,NNW,336,0.0,6.0,62,0.00,,,0.01,meteohub,2013-09-27 15:46:00,
2013-09-27 11:51:00,87.4,71.8,29.89,NW,306,1.0,6.0,60,0.00,,,0.01,meteohub,2013-09-27 15:51:00,
2013-09-27 11:56:00,87.4,72.9,29.89,West,260,2.0,6.0,62,0.00,,,0.01,meteohub,2013-09-27 15:56:00,
2013-09-27 12:01:00,87.8,73.2,29.89,NNE,24,1.0,5.0,62,0.00,,,0.01,meteohub,2013-09-27 16:01:00,
2013-09-27 12:06:00,88.0,73.4,29.88,NNW,339,1.0,5.0,62,0.00,,,0.01,meteohub,2013-09-27 16:06:00,
2013-09-27 12:11:00,88.0,72.9,29.88,North,355,0.0,5.0,61,0.00,,,0.01,meteohub,2013-09-27 16:11:00,
2013-09-27 12:16:00,88.3,72.7,29.88,ENE,60,1.0,5.0,60,0.00,,,0.01,meteohub,2013-09-27 16:16:00,
2013-09-27 12:21:00,88.7,72.5,29.88,NNE,28,8.0,8.0,59,0.00,,,0.01,meteohub,2013-09-27 16:21:00,
2013-09-27 12:26:00,88.5,72.3,29.88,NNW,328,3.0,8.0,59,0.00,,,0.01,meteohub,2013-09-27 16:26:00,
2013-09-27 12:31:00,89.1,72.9,29.88,NW,314,4.0,8.0,59,0.00,,,0.01,meteohub,2013-09-27 16:31:00,
2013-09-27 12:36:00,89.4,72.7,29.88,NW,323,1.0,8.0,58,0.00,,,0.01,meteohub,2013-09-27 16:36:00,
2013-09-27 12:41:00,89.8,72.5,29.88,NW,315,0.0,5.0,57,0.00,,,0.01,meteohub,2013-09-27 16:41:00,
2013-09-27 12:46:00,90.0,72.1,29.88,NE,42,0.0,6.0,56,0.00,,,0.01,meteohub,2013-09-27 16:46:00,
2013-09-27 12:51:00,90.3,72.5,29.88,North,11,5.0,6.0,56,0.00,,,0.01,meteohub,2013-09-27 16:51:00,
2013-09-27 12:56:00,90.7,72.9,29.87,North,0,1.0,6.0,56,0.00,,,0.01,meteohub,2013-09-27 16:56:00,
2013-09-27 13:01:00,90.7,72.3,29.87,NNE,22,2.0,6.0,55,0.00,,,0.01,meteohub,2013-09-27 17:01:00,
2013-09-27 13:06:00,90.7,71.8,29.87,NW,319,3.0,6.0,54,0.00,,,0.01,meteohub,2013-09-27 17:06:00,
2013-09-27 13:11:00,90.9,72.0,29.87,NNW,347,4.0,11.0,54,0.00,,,0.01,meteohub,2013-09-27 17:11:00,
2013-09-27 13:16:00,90.1,75.9,29.87,NNW,339,5.0,11.0,63,0.00,,,0.01,meteohub,2013-09-27 17:16:00,
2013-09-27 13:22:00,88.0,75.2,29.87,ENE,61,4.0,11.0,66,0.00,,,0.01,meteohub,2013-09-27 17:22:00,
2013-09-27 13:26:00,86.5,75.6,29.87,NE,39,2.0,10.0,70,0.00,,,0.01,meteohub,2013-09-27 17:26:00,
2013-09-27 13:31:00,85.5,75.4,29.86,NE,49,0.0,9.0,72,0.00,,,0.01,meteohub,2013-09-27 17:31:00,
2013-09-27 13:36:00,85.6,75.2,29.86,NNW,331,0.0,6.0,71,0.00,,,0.01,meteohub,2013-09-27 17:36:00,
2013-09-27 13:42:00,85.5,75.0,29.86,East,94,1.0,12.0,71,0.00,,,0.01,meteohub,2013-09-27 17:42:00,
2013-09-27 13:47:00,84.6,75.0,29.86,NE,44,1.0,12.0,73,0.00,,,0.01,meteohub,2013-09-27 17:47:00,
2013-09-27 13:52:00,84.7,75.2,29.86,NNE,13,6.0,12.0,73,0.00,,,0.01,meteohub,2013-09-27 17:52:00,
2013-09-27 13:57:00,84.6,74.5,29.86,NE,53,5.0,10.0,72,0.00,,,0.01,meteohub,2013-09-27 17:57:00,
2013-09-27 14:02:00,83.8,74.3,29.86,NE,46,6.0,10.0,73,0.00,,,0.01,meteohub,2013-09-27 18:02:00,
2013-09-27 14:07:00,84.4,74.3,29.85,NNE,27,1.0,10.0,72,0.00,,,0.01,meteohub,2013-09-27 18:07:00,
2013-09-27 14:12:00,85.5,75.0,29.85,NE,47,6.0,8.0,71,0.00,,,0.01,meteohub,2013-09-27 18:12:00,
2013-09-27 14:17:00,85.8,74.8,29.85,NE,35,2.0,10.0,70,0.00,,,0.01,meteohub,2013-09-27 18:17:00,
2013-09-27 14:22:00,85.8,74.8,29.85,ENE,61,1.0,10.0,70,0.00,,,0.01,meteohub,2013-09-27 18:22:00,
2013-09-27 14:27:00,85.8,73.9,29.85,NE,45,0.0,10.0,68,0.00,,,0.01,meteohub,2013-09-27 18:27:00,
2013-09-27 14:32:00,86.4,74.1,29.84,North,350,3.0,8.0,67,0.00,,,0.01,meteohub,2013-09-27 18:32:00,
2013-09-27 14:37:00,85.8,73.6,29.84,NNE,22,2.0,8.0,67,0.00,,,0.01,meteohub,2013-09-27 18:37:00,
2013-09-27 14:42:00,85.5,73.8,29.84,NNE,32,0.0,8.0,68,0.00,,,0.01,meteohub,2013-09-27 18:42:00,
2013-09-27 14:47:00,85.6,74.3,29.84,NE,40,3.0,10.0,69,0.00,,,0.01,meteohub,2013-09-27 18:47:00,
2013-09-27 14:52:00,85.8,72.1,29.84,NE,36,3.0,10.0,64,0.00,,,0.01,meteohub,2013-09-27 18:52:00,
2013-09-27 14:57:00,85.3,72.1,29.84,East,96,3.0,10.0,65,0.00,,,0.01,meteohub,2013-09-27 18:57:00,
2013-09-27 15:02:00,84.6,71.4,29.84,NE,52,7.0,8.0,65,0.00,,,0.01,meteohub,2013-09-27 19:02:00,
2013-09-27 15:07:00,84.6,72.3,29.84,NE,39,0.0,9.0,67,0.00,,,0.01,meteohub,2013-09-27 19:07:00,
2013-09-27 15:12:00,85.3,72.7,29.84,NE,42,4.0,9.0,66,0.00,,,0.01,meteohub,2013-09-27 19:12:00,
2013-09-27 15:17:00,85.8,73.6,29.84,NNE,18,1.0,11.0,67,0.00,,,0.01,meteohub,2013-09-27 19:17:00,
2013-09-27 15:22:00,86.4,73.2,29.83,NNE,28,0.0,11.0,65,0.00,,,0.01,meteohub,2013-09-27 19:22:00,
2013-09-27 15:27:00,86.4,73.2,29.83,NE,34,2.0,11.0,65,0.00,,,0.01,meteohub,2013-09-27 19:27:00,
2013-09-27 15:32:00,86.5,72.5,29.83,ESE,111,3.0,8.0,63,0.00,,,0.01,meteohub,2013-09-27 19:32:00,
2013-09-27 15:37:00,86.4,71.8,29.84,NE,45,3.0,11.0,62,0.00,,,0.01,meteohub,2013-09-27 19:37:00,
2013-09-27 15:42:00,86.4,71.2,29.84,NE,38,4.0,11.0,61,0.00,,,0.01,meteohub,2013-09-27 19:42:00,
2013-09-27 15:47:00,86.2,73.0,29.84,North,5,3.0,11.0,65,0.00,,,0.01,meteohub,2013-09-27 19:47:00,
2013-09-27 15:52:00,86.2,71.1,29.84,ENE,62,1.0,9.0,61,0.00,,,0.01,meteohub,2013-09-27 19:52:00,
2013-09-27 15:57:00,85.8,73.2,29.84,NE,49,7.0,10.0,66,0.00,,,0.01,meteohub,2013-09-27 19:57:00,
2013-09-27 16:02:00,85.3,73.0,29.84,NE,56,5.0,10.0,67,0.00,,,0.01,meteohub,2013-09-27 20:02:00,
2013-09-27 16:07:00,85.1,73.4,29.84,NE,34,5.0,11.0,68,0.00,,,0.01,meteohub,2013-09-27 20:07:00,
2013-09-27 16:12:00,85.3,73.9,29.84,NNE,28,1.0,11.0,69,0.00,,,0.01,meteohub,2013-09-27 20:12:00,
2013-09-27 16:17:00,85.5,73.8,29.84,NNE,32,4.0,11.0,68,0.00,,,0.01,meteohub,2013-09-27 20:17:00,
2013-09-27 16:22:00,85.5,73.8,29.84,NE,38,0.0,8.0,68,0.00,,,0.01,meteohub,2013-09-27 20:22:00,
2013-09-27 16:27:00,85.6,72.5,29.84,NNE,32,3.0,8.0,65,0.00,,,0.01,meteohub,2013-09-27 20:27:00,
2013-09-27 16:32:00,85.6,73.9,29.84,NE,37,3.0,9.0,68,0.00,,,0.01,meteohub,2013-09-27 20:32:00,
2013-09-27 16:37:00,85.5,74.5,29.84,North,0,1.0,9.0,70,0.00,,,0.01,meteohub,2013-09-27 20:37:00,
2013-09-27 16:42:00,85.3,73.6,29.84,ENE,76,3.0,9.0,68,0.00,,,0.01,meteohub,2013-09-27 20:42:00,
2013-09-27 16:47:00,84.7,73.4,29.84,ENE,59,0.0,8.0,69,0.00,,,0.01,meteohub,2013-09-27 20:47:00,
2013-09-27 16:52:00,84.6,74.1,29.84,NE,39,2.0,10.0,71,0.00,,,0.01,meteohub,2013-09-27 20:52:00,
2013-09-27 16:57:00,84.7,74.3,29.84,NE,55,1.0,10.0,71,0.00,,,0.01,meteohub,2013-09-27 20:57:00,
2013-09-27 17:02:00,84.7,75.2,29.84,East,87,2.0,10.0,73,0.00,,,0.01,meteohub,2013-09-27 21:02:00,
2013-09-27 17:07:00,84.6,75.0,29.84,East,96,5.0,10.0,73,0.00,,,0.01,meteohub,2013-09-27 21:07:00,
2013-09-27 17:12:00,84.4,75.2,29.84,NE,41,0.0,9.0,74,0.00,,,0.01,meteohub,2013-09-27 21:12:00,
2013-09-27 17:16:00,84.6,75.0,29.85,North,10,0.0,9.0,73,0.00,,,0.01,meteohub,2013-09-27 21:16:00,
2013-09-27 17:21:00,84.4,75.2,29.85,NE,42,3.0,9.0,74,0.00,,,0.01,meteohub,2013-09-27 21:21:00,
2013-09-27 17:26:00,84.0,75.2,29.85,NNW,336,5.0,8.0,75,0.00,,,0.01,meteohub,2013-09-27 21:26:00,
2013-09-27 17:31:00,83.8,75.0,29.85,NNE,22,2.0,10.0,75,0.00,,,0.01,meteohub,2013-09-27 21:31:00,
2013-09-27 17:36:00,83.8,75.0,29.85,NE,37,1.0,10.0,75,0.00,,,0.01,meteohub,2013-09-27 21:36:00,
2013-09-27 17:41:00,83.7,75.2,29.86,ESE,121,3.0,10.0,76,0.00,,,0.01,meteohub,2013-09-27 21:41:00,
2013-09-27 17:46:00,83.8,75.0,29.86,ENE,63,4.0,8.0,75,0.00,,,0.01,meteohub,2013-09-27 21:46:00,
2013-09-27 17:52:00,83.7,74.8,29.86,NNE,23,3.0,6.0,75,0.00,,,0.01,meteohub,2013-09-27 21:52:00,
2013-09-27 17:56:00,83.7,74.5,29.86,NE,43,4.0,7.0,74,0.00,,,0.01,meteohub,2013-09-27 21:56:00,
2013-09-27 18:01:00,83.7,74.8,29.86,NNE,26,0.0,7.0,75,0.00,,,0.01,meteohub,2013-09-27 22:01:00,
2013-09-27 18:06:00,83.5,74.7,29.86,NE,36,3.0,7.0,75,0.00,,,0.01,meteohub,2013-09-27 22:06:00,
2013-09-27 18:11:00,83.3,74.5,29.86,NNE,29,3.0,7.0,75,0.00,,,0.01,meteohub,2013-09-27 22:11:00,
2013-09-27 18:17:00,82.9,74.1,29.86,North,11,3.0,9.0,75,0.00,,,0.01,meteohub,2013-09-27 22:17:00,
2013-09-27 18:22:00,82.9,74.1,29.86,NNE,33,2.0,9.0,75,0.00,,,0.01,meteohub,2013-09-27 22:22:00,
2013-09-27 18:27:00,82.8,73.9,29.86,ENE,70,0.0,9.0,75,0.00,,,0.01,meteohub,2013-09-27 22:27:00,
2013-09-27 18:32:00,82.8,73.9,29.86,NNE,22,4.0,7.0,75,0.00,,,0.01,meteohub,2013-09-27 22:32:00,
2013-09-27 18:37:00,82.6,74.3,29.86,NNW,336,2.0,6.0,76,0.00,,,0.01,meteohub,2013-09-27 22:37:00,
2013-09-27 18:42:00,82.2,73.6,29.87,NE,54,1.0,9.0,75,0.00,,,0.01,meteohub,2013-09-27 22:42:00,
2013-09-27 18:47:00,82.0,73.8,29.87,NNE,13,0.0,9.0,76,0.00,,,0.01,meteohub,2013-09-27 22:47:00,
2013-09-27 18:52:00,81.9,73.9,29.87,NNW,338,2.0,9.0,77,0.00,,,0.01,meteohub,2013-09-27 22:52:00,
2013-09-27 18:57:00,81.7,74.1,29.87,ENE,71,0.0,5.0,78,0.00,,,0.01,meteohub,2013-09-27 22:57:00,
2013-09-27 19:02:00,81.3,73.8,29.87,NE,49,2.0,5.0,78,0.00,,,0.01,meteohub,2013-09-27 23:02:00,
2013-09-27 19:07:00,81.1,73.6,29.87,North,5,0.0,7.0,78,0.00,,,0.01,meteohub,2013-09-27 23:07:00,
2013-09-27 19:12:00,81.0,73.0,29.87,NNE,30,2.0,7.0,77,0.00,,,0.01,meteohub,2013-09-27 23:12:00,
2013-09-27 19:17:00,80.8,72.5,29.87,NNE,26,0.0,7.0,76,0.00,,,0.01,meteohub,2013-09-27 23:17:00,
2013-09-27 19:22:00,80.4,72.1,29.87,NNE,20,1.0,5.0,76,0.00,,,0.01,meteohub,2013-09-27 23:22:00,
2013-09-27 19:27:00,80.2,72.3,29.87,NNE,19,0.0,6.0,77,0.00,,,0.01,meteohub,2013-09-27 23:27:00,
2013-09-27 19:32:00,80.2,72.7,29.87,NE,42,0.0,6.0,78,0.00,,,0.01,meteohub,2013-09-27 23:32:00,
2013-09-27 19:37:00,80.2,73.6,29.88,NNE,22,0.0,6.0,80,0.00,,,0.01,meteohub,2013-09-27 23:37:00,
2013-09-27 19:42:00,80.2,73.9,29.88,NNE,21,0.0,5.0,81,0.00,,,0.01,meteohub,2013-09-27 23:42:00,
2013-09-27 19:47:00,80.2,73.9,29.88,NNW,347,0.0,4.0,81,0.00,,,0.01,meteohub,2013-09-27 23:47:00,
2013-09-27 19:52:00,80.2,73.9,29.88,NNE,30,1.0,3.0,81,0.00,,,0.01,meteohub,2013-09-27 23:52:00,
2013-09-27 19:57:00,80.2,73.9,29.88,North,9,0.0,3.0,81,0.00,,,0.01,meteohub,2013-09-27 23:57:00,
2013-09-27 20:02:00,80.2,74.3,29.88,North,5,0.0,3.0,82,0.00,,,0.01,meteohub,2013-09-28 00:02:00,
2013-09-27 20:07:00,80.1,74.1,29.88,North,5,0.0,3.0,82,0.00,,,0.00,meteohub,2013-09-28 00:07:00,
2013-09-27 20:12:00,79.9,73.9,29.88,North,11,0.0,1.0,82,0.00,,,0.00,meteohub,2013-09-28 00:12:00,
2013-09-27 20:17:00,79.9,73.9,29.89,NNE,33,0.0,2.0,82,0.00,,,0.00,meteohub,2013-09-28 00:17:00,
2013-09-27 20:22:00,79.7,73.8,29.89,NE,39,0.0,2.0,82,0.00,,,0.00,meteohub,2013-09-28 00:22:00,
2013-09-27 20:27:00,79.7,73.4,29.89,NE,40,0.0,5.0,81,0.00,,,0.00,meteohub,2013-09-28 00:27:00,
2013-09-27 20:32:00,79.7,73.4,29.89,NE,38,0.0,5.0,81,0.00,,,0.00,meteohub,2013-09-28 00:32:00,
2013-09-27 20:37:00,79.5,73.2,29.89,NE,39,0.0,5.0,81,0.00,,,0.00,meteohub,2013-09-28 00:37:00,
2013-09-27 20:42:00,79.5,73.6,29.89,NNE,32,3.0,3.0,82,0.00,,,0.00,meteohub,2013-09-28 00:42:00,
2013-09-27 20:47:00,79.5,73.2,29.89,North,351,0.0,4.0,81,0.00,,,0.00,meteohub,2013-09-28 00:47:00,
2013-09-27 20:52:00,79.3,73.4,29.89,NE,44,0.0,4.0,82,0.00,,,0.00,meteohub,2013-09-28 00:52:00,
2013-09-27 20:57:00,79.3,73.4,29.89,NNE,26,0.0,4.0,82,0.00,,,0.00,meteohub,2013-09-28 00:57:00,
2013-09-27 21:02:00,79.5,73.6,29.89,NNE,26,0.0,2.0,82,0.00,,,0.00,meteohub,2013-09-28 01:02:00,
2013-09-27 21:07:00,79.3,73.0,29.90,NNE,26,0.0,2.0,81,0.00,,,0.00,meteohub,2013-09-28 01:07:00,
2013-09-27 21:12:00,79.3,72.7,29.90,NNE,33,0.0,2.0,80,0.00,,,0.00,meteohub,2013-09-28 01:12:00,
2013-09-27 21:17:00,79.3,72.3,29.90,NNE,26,0.0,2.0,79,0.00,,,0.00,meteohub,2013-09-28 01:17:00,
2013-09-27 21:22:00,79.3,72.3,29.90,NNE,26,0.0,2.0,79,0.00,,,0.00,meteohub,2013-09-28 01:22:00,
2013-09-27 21:27:00,79.2,72.5,29.90,NNE,33,0.0,1.0,80,0.00,,,0.00,meteohub,2013-09-28 01:27:00,
2013-09-27 21:32:00,79.2,72.5,29.90,NNE,17,0.0,2.0,80,0.00,,,0.00,meteohub,2013-09-28 01:32:00,
2013-09-27 21:37:00,79.3,72.7,29.90,NE,36,0.0,2.0,80,0.00,,,0.00,meteohub,2013-09-28 01:37:00,
2013-09-27 21:42:00,79.5,72.5,29.90,NE,46,2.0,2.0,79,0.00,,,0.00,meteohub,2013-09-28 01:42:00,
2013-09-27 21:47:00,79.7,72.7,29.90,NE,39,0.0,4.0,79,0.00,,,0.00,meteohub,2013-09-28 01:47:00,
2013-09-27 21:52:00,79.9,72.9,29.91,NE,39,0.0,4.0,79,0.00,,,0.00,meteohub,2013-09-28 01:52:00,
2013-09-27 21:57:00,79.7,73.0,29.91,NE,40,0.0,4.0,80,0.00,,,0.00,meteohub,2013-09-28 01:57:00,
2013-09-27 22:02:00,79.5,72.9,29.91,NNE,33,0.0,0.0,80,0.00,,,0.00,meteohub,2013-09-28 02:02:00,
2013-09-27 22:07:00,79.5,73.6,29.91,NNW,339,1.0,1.0,82,0.00,,,0.00,meteohub,2013-09-28 02:07:00,
2013-09-27 22:12:00,79.2,74.3,29.91,North,5,0.0,4.0,85,0.04,,,0.04,meteohub,2013-09-28 02:12:00,
2013-09-27 22:17:00,78.6,74.1,29.91,North,5,0.0,4.0,86,0.04,,,0.04,meteohub,2013-09-28 02:17:00,
2013-09-27 22:23:00,78.3,74.5,29.91,North,5,0.0,4.0,88,0.04,,,0.04,meteohub,2013-09-28 02:23:00,
2013-09-27 22:28:00,77.7,74.3,29.92,North,5,0.0,2.0,89,0.04,,,0.04,meteohub,2013-09-28 02:28:00,
2013-09-27 22:33:00,77.5,74.3,29.92,North,5,0.0,0.0,90,0.04,,,0.04,meteohub,2013-09-28 02:33:00,
2013-09-27 22:38:00,77.2,74.3,29.92,North,5,0.0,0.0,91,0.04,,,0.04,meteohub,2013-09-28 02:38:00,
2013-09-27 22:43:00,77.0,74.1,29.92,ESE,110,1.0,4.0,91,0.04,,,0.04,meteohub,2013-09-28 02:43:00,
2013-09-27 22:48:00,76.6,73.2,29.92,ENE,76,0.0,4.0,89,0.04,,,0.04,meteohub,2013-09-28 02:48:00,
2013-09-27 22:53:00,76.1,72.3,29.92,NE,53,0.0,4.0,88,0.05,,,0.05,meteohub,2013-09-28 02:53:00,
2013-09-27 22:58:00,75.7,72.3,29.92,NE,53,0.0,1.0,89,0.05,,,0.05,meteohub,2013-09-28 02:58:00,
2013-09-27 23:03:00,75.6,72.1,29.92,NE,53,0.0,1.0,89,0.05,,,0.05,meteohub,2013-09-28 03:03:00,
2013-09-27 23:08:00,75.4,72.3,29.91,NE,53,0.0,0.0,90,0.05,,,0.05,meteohub,2013-09-28 03:08:00,
2013-09-27 23:13:00,75.2,72.3,29.92,NE,53,0.0,0.0,91,0.01,,,0.05,meteohub,2013-09-28 03:13:00,
2013-09-27 23:18:00,75.0,72.5,29.92,NE,53,0.0,0.0,92,0.01,,,0.05,meteohub,2013-09-28 03:18:00,
2013-09-27 23:23:00,74.8,72.7,29.91,NE,53,0.0,0.0,93,0.01,,,0.05,meteohub,2013-09-28 03:23:00,
2013-09-27 23:28:00,74.8,72.7,29.92,NE,53,0.0,0.0,93,0.01,,,0.05,meteohub,2013-09-28 03:28:00,
2013-09-27 23:33:00,74.8,72.7,29.92,NE,53,0.0,0.0,93,0.01,,,0.05,meteohub,2013-09-28 03:33:00,
2013-09-27 23:38:00,75.0,73.2,29.92,NE,53,0.0,0.0,94,0.01,,,0.05,meteohub,2013-09-28 03:38:00,
2013-09-27 23:43:00,75.0,73.4,29.92,NE,34,0.0,0.0,95,0.01,,,0.05,meteohub,2013-09-28 03:43:00,
2013-09-27 23:48:00,75.0,73.2,29.91,NNE,33,0.0,3.0,94,0.01,,,0.05,meteohub,2013-09-28 03:48:00,
2013-09-27 23:53:00,74.8,72.7,29.91,NNE,33,0.0,3.0,93,0.00,,,0.05,meteohub,2013-09-28 03:53:00,
2013-09-27 23:58:00,74.5,72.0,29.92,NNE,33,0.0,3.0,92,0.00,,,0.05,meteohub,2013-09-28 03:58:00,